Rumusan perlumbaan (Litar: Monte Carlo | Musim: 19 | Perlumbaan: 4 | Kumpulan: Elite)

Pilih kumpulan lain:  Musim:  Perlumbaan:

Pos Perkembangan Tayar Kew Nama pengurus Masa perlumbaan Lap Hentian pit Lap terbaik Kelajuan purata Masa lap terbaik
01. +2 +2 Michelini   Edvinas Pranculevicius 1h45:40.892 78 1 1:20.014 149.20km/h 12.393s
02. +2 +2 Michelini   Aleksej Sutkin + 0.526 78 1 1:19.693 149.19km/h 13.857s
03. -1 -1 Michelini   Vladimir Islentiev2 + 6.354 78 2 1:19.521 149.05km/h 9.872s
04. +2 +2 Michelini   Joan Centellas + 7.646 78 1 1:19.895 149.02km/h 12.086s
05. -4 -4 Michelini   Toygun Senler1 + 8.923 78 2 1:19.776 148.99km/h 11.097s
06. +8 +8 Michelini   Jari Aareskoski3 + 16.573 78 1 1:19.756 148.81km/h 11.284s
07. -2 -2 Michelini   Filipe Miguel + 26.660 78 1 1:20.238 148.58km/h 16.244s
08. +1 +1 Michelini   Zdenek Hladik + 26.765 78 1 1:19.957 148.58km/h 13.941s
09. +2 +2 Michelini   Marek Marchewka + 27.727 78 1 1:19.957 148.55km/h 13.789s
10. +2 +2 Michelini   João Monteiro + 27.892 78 1 1:19.986 148.55km/h 13.620s
11. -1 -1 Michelini   Nuno Vicente + 38.170 78 1 1:20.191 148.31km/h 11.479s
12. -4 -4 Michelini   Jan Zaluski + 39.168 78 1 1:20.214 148.29km/h 14.843s
13. +2 +2 Michelini   Martin Rosina + 53.648 78 1 1:20.609 147.95km/h 14.046s
14. +3 +3 Michelini   Tomasz Kaminski + 1:16.284 78 1 1:20.756 147.43km/h 16.231s
15. +1 +1 Michelini   Denis Grahov + 1:39.880 77 1 1:20.923 146.89km/h 10.990s
16. +7 +7 Michelini   Martynas Molneris + 1:40.426 77 1 1:20.643 146.88km/h 14.426s
17. +3 +3 Michelini   Laila Britāle + 1:40.910 77 1 1:20.270 146.87km/h 10.902s
18. Tidak berubah ±0 Dunnolop   Daniele Ambroggi + 1:43.545 77 1 1:20.788 146.81km/h 13.972s
19. +5 +5 Dunnolop   Michalis Marolachakis + 1:52.441 77 1 1:21.037 146.60km/h 13.433s
20. +2 +2 Michelini   Rimantas Sagatas + 1:52.616 77 1 1:20.605 146.60km/h 13.787s
21. Tidak berubah ±0 Michelini   Vitor Novo + 2:04.858 77 1 1:21.033 146.32km/h 15.588s
22. -3 -3 Michelini   Lucas Secundo Abreu + 2:16.952 77 1 1:20.898 146.05km/h 22.530s
23. -16 -16 Michelini   Wagner Souza + 2:17.624 77 1 1:21.062 146.03km/h 15.426s
24. +9 +9 Dunnolop   Leandro Sereno2 + 2:58.064 76 2 1:21.071 145.13km/h 8.539s
25. +4 +4 Dunnolop   Oli Jais + 3:23.979 76 3 1:21.312 144.55km/h 11.736s
26. +6 +6 Dunnolop   Gabriel Toma + 3:27.432 76 1 1:21.434 144.48km/h 14.569s
27. -1 -1 Dunnolop   Andrius Talandzevicius + 3:57.176 76 1 1:21.713 143.82km/h 16.275s
28. -3 -3 Badyear   Toni Söyrinki + 4:15.991 75 1 1:22.819 143.41km/h 17.202s
29. -16 -16 Michelini   Renato Svaiter + 4:23.859 75 2 1:22.292 143.24km/h 15.611s
30. +1 +1 Dunnolop   Andy Zavarin + 4:41.048 75 1 1:23.432 142.87km/h 18.695s
31. -1 -1 Badyear   Michał Smiatacz + 5:01.593 75 1 1:23.511 142.43km/h 23.017s
32. +2 +2 Dunnolop   Kostas Farsalinos + 5:16.125 75 1 1:23.596 142.12km/h 16.197s
33. +5 +5 Pipirelli   Philipp Hartmann + 5:35.350 74 1 1:24.117 141.71km/h 12.438s
34. -7 -7 Badyear   Lee Ifans + 5:40.702 74 3 1:23.250 141.59km/h 15.134s
35. Tidak berubah ±0 Pipirelli   Mikko Heikkinen + 5:44.323 74 1 1:23.926 141.52km/h 18.080s
36. Tidak berubah ±0 Pipirelli   Craig Templeman + 5:47.606 74 1 1:24.469 141.45km/h 16.450s
37. -9 -9 Badyear   Michael Monaco + 5:49.384 74 1 1:23.387 141.41km/h 17.236s
38. -1 -1 Pipirelli   Martynas Atkočius + 5:52.725 74 1 1:24.145 141.34km/h 16.437s